Time;durP1;ratioP1;P1;durP2;ratioP2;P2;SDS_P1;SDS_P2;PMS_P1;PMS_P2;Temp;Humidity;BMP_temperature;BMP_pressure;BME280_temperature;BME280_humidity;BME280_pressure;Samples;Min_cycle;Max_cycle;Signal;HPM_P1;HPM_P2
2023/07/08 00:01:09;;;;;;;0.00;0.00;;;;;;;18.19;56.60;97846.03;5014868;28;20104;-74
2023/07/08 00:03:37;;;;;;;0.00;0.00;;;;;;;18.15;56.92;97844.06;5016277;28;20047;-73
2023/07/08 00:06:05;;;;;;;0.10;0.10;;;;;;;18.30;55.84;97853.31;5026584;28;20060;-73
2023/07/08 00:08:34;;;;;;;0.10;0.10;;;;;;;18.07;57.22;97844.41;5016692;28;20453;-74
2023/07/08 00:11:01;;;;;;;0.00;0.00;;;;;;;17.96;57.05;97849.56;5011957;28;20041;-73
2023/07/08 00:13:29;;;;;;;0.00;0.00;;;;;;;17.79;58.20;97843.25;5016245;28;20103;-73
2023/07/08 00:15:57;;;;;;;0.10;0.10;;;;;;;17.50;59.06;97844.13;5025229;28;20128;-74
2023/07/08 00:18:24;;;;;;;0.10;0.10;;;;;;;17.38;59.84;97849.50;5024650;28;20046;-73
2023/07/08 00:20:52;;;;;;;0.00;0.00;;;;;;;17.32;59.92;97847.75;5026897;28;20489;-74
2023/07/08 00:23:21;;;;;;;0.00;0.00;;;;;;;17.22;59.38;97845.59;5029863;28;20041;-73
2023/07/08 00:25:51;;;;;;;0.03;0.03;;;;;;;17.17;60.32;97850.84;5020781;28;20073;-72
2023/07/08 00:28:20;;;;;;;0.00;0.00;;;;;;;17.36;59.43;97839.97;5020591;28;20049;-73
2023/07/08 00:30:49;;;;;;;0.00;0.00;;;;;;;17.30;59.78;97833.66;5026401;28;20061;-74
2023/07/08 00:33:17;;;;;;;0.22;0.10;;;;;;;17.21;60.11;97832.34;5020920;28;20046;-73
2023/07/08 00:35:45;;;;;;;0.20;0.20;;;;;;;16.99;60.67;97837.44;5028737;28;20073;-73
2023/07/08 00:38:15;;;;;;;0.10;0.10;;;;;;;16.94;61.00;97834.59;5030430;28;20053;-73
2023/07/08 00:40:52;;;;;;;0.00;0.00;;;;;;;17.21;59.87;97826.94;5012610;28;20045;-73
2023/07/08 00:43:23;;;;;;;0.00;0.00;;;;;;;17.19;59.90;97829.88;5021348;28;20091;-74
2023/07/08 00:45:52;;;;;;;0.00;0.00;;;;;;;17.12;60.13;97823.75;5024164;28;20075;-73
2023/07/08 00:48:31;;;;;;;0.10;0.10;;;;;;;17.16;60.09;97830.31;5022126;28;20030;-73
2023/07/08 00:50:58;;;;;;;0.10;0.10;;;;;;;17.17;60.28;97837.38;5023671;28;20049;-73
2023/07/08 00:53:29;;;;;;;0.10;0.10;;;;;;;17.11;60.75;97834.78;5020457;28;20038;-74
2023/07/08 00:56:00;;;;;;;0.00;0.00;;;;;;;17.12;60.85;97848.03;5031195;28;20069;-73
2023/07/08 00:58:32;;;;;;;0.00;0.00;;;;;;;17.15;60.32;97844.03;5028970;28;20133;-73
2023/07/08 01:01:00;;;;;;;0.10;0.10;;;;;;;17.19;60.57;97829.88;5023993;28;20045;-73
2023/07/08 01:03:29;;;;;;;0.00;0.00;;;;;;;17.20;60.30;97836.91;5024445;28;20092;-73
2023/07/08 01:06:00;;;;;;;0.00;0.00;;;;;;;17.15;60.36;97838.63;5024891;28;20061;-73
2023/07/08 01:08:30;;;;;;;0.00;0.00;;;;;;;17.06;60.96;97842.72;5022472;28;20049;-73
2023/07/08 01:11:02;;;;;;;0.10;0.10;;;;;;;17.01;60.91;97845.28;5021175;28;20652;-73
2023/07/08 01:13:35;;;;;;;0.10;0.10;;;;;;;17.04;60.91;97840.25;5021624;28;20084;-73
2023/07/08 01:16:02;;;;;;;;;;;;;;;16.79;61.87;97839.59;5024821;28;20378;-73
2023/07/08 01:18:30;;;;;;;0.00;0.00;;;;;;;16.77;61.90;97838.97;5021180;28;19921;-73
2023/07/08 01:21:06;;;;;;;0.00;0.00;;;;;;;16.68;62.08;97838.47;5025277;28;20045;-73
2023/07/08 01:23:36;;;;;;;0.10;0.10;;;;;;;16.67;62.33;97834.13;5023909;28;20056;-73
2023/07/08 01:26:04;;;;;;;0.03;0.03;;;;;;;16.54;62.62;97831.56;5018720;28;20513;-73
2023/07/08 01:28:32;;;;;;;0.10;0.10;;;;;;;16.46;62.88;97832.72;5024724;28;20132;-74
2023/07/08 01:31:00;;;;;;;0.10;0.10;;;;;;;16.35;62.92;97832.63;5029409;28;20103;-75
2023/07/08 01:33:34;;;;;;;0.10;0.10;;;;;;;16.25;63.71;97830.47;5028156;28;20041;-75
2023/07/08 01:36:01;;;;;;;0.00;0.00;;;;;;;16.22;63.27;97822.84;5019973;28;20080;-73
2023/07/08 01:38:29;;;;;;;0.10;0.10;;;;;;;16.17;63.82;97820.00;5026566;28;20060;-73
2023/07/08 01:40:59;;;;;;;0.10;0.10;;;;;;;16.17;63.74;97817.31;5019952;28;20056;-73
2023/07/08 01:43:27;;;;;;;0.00;0.00;;;;;;;16.22;63.50;97819.31;5021304;28;20053;-74
2023/07/08 01:45:55;;;;;;;0.08;0.08;;;;;;;16.30;62.51;97819.03;5024224;28;20071;-74
2023/07/08 01:48:24;;;;;;;0.10;0.10;;;;;;;16.16;63.35;97821.06;5020408;28;20573;-72
2023/07/08 01:50:56;;;;;;;0.10;0.10;;;;;;;16.25;62.71;97826.97;5024379;28;20081;-74
2023/07/08 01:53:30;;;;;;;0.00;0.00;;;;;;;16.11;63.26;97815.50;5021805;28;20081;-73
2023/07/08 01:56:00;;;;;;;0.10;0.10;;;;;;;16.10;63.25;97816.53;5023547;28;20065;-73
2023/07/08 01:58:28;;;;;;;0.10;0.10;;;;;;;15.92;64.20;97806.59;5025106;28;20072;-73
2023/07/08 02:00:56;;;;;;;0.10;0.10;;;;;;;15.92;64.10;97817.38;5022337;28;20451;-73
2023/07/08 02:03:24;;;;;;;0.10;0.10;;;;;;;15.81;64.79;97817.28;5026426;28;20393;-73
2023/07/08 02:05:52;;;;;;;0.10;0.10;;;;;;;15.79;64.81;97822.88;5023391;28;20052;-73
2023/07/08 02:08:20;;;;;;;0.10;0.10;;;;;;;15.71;65.16;97818.59;5021374;28;20508;-74
2023/07/08 02:10:51;;;;;;;0.00;0.00;;;;;;;15.71;64.86;97813.22;5018200;28;20045;-73
2023/07/08 02:13:20;;;;;;;0.10;0.10;;;;;;;15.66;64.79;97817.63;5022812;28;20042;-73
2023/07/08 02:15:48;;;;;;;0.10;0.10;;;;;;;15.65;65.17;97805.22;5023447;28;20396;-73
2023/07/08 02:18:18;;;;;;;0.10;0.10;;;;;;;15.66;64.93;97814.94;5020855;28;20513;-73
2023/07/08 02:20:46;;;;;;;0.10;0.10;;;;;;;15.71;64.74;97817.78;5023406;28;20081;-73
2023/07/08 02:23:14;;;;;;;0.20;0.20;;;;;;;15.72;64.24;97817.56;5022997;28;20051;-74
2023/07/08 02:25:42;;;;;;;0.00;0.00;;;;;;;15.66;64.88;97820.34;5022922;28;20066;-74
2023/07/08 02:28:12;;;;;;;0.05;0.05;;;;;;;15.67;64.84;97806.66;5025653;28;20037;-73
2023/07/08 02:30:41;;;;;;;0.10;0.10;;;;;;;15.63;64.78;97805.44;5020712;28;20637;-74
2023/07/08 02:33:09;;;;;;;0.10;0.10;;;;;;;15.67;64.51;97811.22;5026340;28;20049;-75
2023/07/08 02:35:37;;;;;;;0.10;0.10;;;;;;;15.72;64.18;97808.66;5023248;28;20037;-73
2023/07/08 02:38:05;;;;;;;0.20;0.10;;;;;;;15.61;64.45;97815.59;5019975;28;20464;-74
2023/07/08 02:40:33;;;;;;;0.10;0.10;;;;;;;15.54;64.82;97805.91;5026056;28;20048;-74
2023/07/08 02:43:01;;;;;;;0.00;0.00;;;;;;;15.56;64.76;97811.94;5019287;28;20112;-75
2023/07/08 02:45:28;;;;;;;0.10;0.10;;;;;;;15.54;64.67;97817.53;5028796;28;20052;-74
2023/07/08 02:47:57;;;;;;;0.10;0.10;;;;;;;15.48;64.92;97818.38;5030097;28;20041;-76
2023/07/08 02:50:25;;;;;;;0.10;0.10;;;;;;;15.36;65.19;97817.47;5015854;28;20053;-75
2023/07/08 02:52:53;;;;;;;0.10;0.10;;;;;;;15.25;65.42;97816.31;5027336;28;20116;-75
2023/07/08 02:55:20;;;;;;;0.10;0.10;;;;;;;15.28;65.45;97820.41;5031983;28;20047;-75
2023/07/08 02:57:48;;;;;;;0.10;0.10;;;;;;;15.26;65.50;97826.00;5028086;28;20049;-75
2023/07/08 03:00:16;;;;;;;0.20;0.20;;;;;;;15.27;65.22;97827.63;5022993;28;20084;-74
2023/07/08 03:02:44;;;;;;;0.20;0.20;;;;;;;15.32;64.76;97830.50;5016254;28;20456;-75
2023/07/08 03:05:13;;;;;;;0.03;0.03;;;;;;;15.21;65.40;97827.69;5027096;28;20054;-75
2023/07/08 03:07:40;;;;;;;0.10;0.10;;;;;;;15.16;65.34;97827.53;5028672;28;20045;-74
2023/07/08 03:10:09;;;;;;;0.05;0.05;;;;;;;15.18;65.09;97825.44;5021831;28;20064;-74
2023/07/08 03:12:36;;;;;;;0.20;0.20;;;;;;;15.18;65.14;97830.81;5030396;28;20602;-74
2023/07/08 03:15:06;;;;;;;0.10;0.10;;;;;;;15.12;65.37;97826.31;5028510;28;20056;-74
2023/07/08 03:17:33;;;;;;;0.17;0.13;;;;;;;15.12;65.42;97821.78;5032741;28;20049;-74
2023/07/08 03:20:01;;;;;;;0.10;0.10;;;;;;;15.05;65.50;97824.47;5028120;28;20041;-76
2023/07/08 03:22:30;;;;;;;0.17;0.10;;;;;;;14.99;65.70;97824.53;5024289;28;20045;-76
2023/07/08 03:24:58;;;;;;;0.10;0.10;;;;;;;14.95;65.90;97834.09;5027919;28;20037;-74
2023/07/08 03:27:26;;;;;;;0.20;0.20;;;;;;;14.93;65.92;97837.00;5016638;28;20065;-75
2023/07/08 03:29:55;;;;;;;0.10;0.10;;;;;;;15.00;65.61;97842.31;5019678;28;20053;-74
2023/07/08 03:32:23;;;;;;;0.10;0.10;;;;;;;14.95;65.97;97837.59;5028851;28;20497;-75
2023/07/08 03:34:50;;;;;;;0.13;0.13;;;;;;;14.98;65.43;97829.09;5028319;28;20053;-74
2023/07/08 03:37:20;;;;;;;0.13;0.13;;;;;;;14.96;65.62;97836.53;5024152;28;20041;-74
2023/07/08 03:39:49;;;;;;;0.10;0.10;;;;;;;14.96;65.56;97835.72;5024378;28;20056;-74
2023/07/08 03:42:16;;;;;;;0.20;0.20;;;;;;;14.79;66.30;97832.72;5016367;28;20057;-75
2023/07/08 03:44:44;;;;;;;0.20;0.20;;;;;;;14.79;66.55;97832.72;5015092;28;20073;-75
2023/07/08 03:47:12;;;;;;;0.00;0.00;;;;;;;14.78;66.54;97844.50;5025902;28;20037;-75
2023/07/08 03:49:40;;;;;;;0.10;0.10;;;;;;;14.80;66.64;97844.31;5029537;28;20038;-74
2023/07/08 03:52:10;;;;;;;0.05;0.05;;;;;;;14.68;66.99;97850.34;5024731;28;20104;-75
2023/07/08 03:54:39;;;;;;;;;;;;;;;14.84;66.52;97854.41;5030217;28;20052;-75
2023/07/08 03:57:08;;;;;;;0.10;0.10;;;;;;;15.10;65.23;97855.28;5025333;28;19925;-75
2023/07/08 03:59:36;;;;;;;0.10;0.10;;;;;;;15.01;65.67;97836.72;5023693;28;20868;-74
2023/07/08 04:02:04;;;;;;;0.10;0.10;;;;;;;14.95;66.01;97850.22;5031915;28;20654;-74
2023/07/08 04:04:32;;;;;;;0.10;0.10;;;;;;;15.10;65.60;97847.22;5023850;28;20055;-75
2023/07/08 04:06:59;;;;;;;0.10;0.10;;;;;;;15.37;64.61;97846.81;5033149;28;20037;-74
2023/07/08 04:09:27;;;;;;;0.17;0.17;;;;;;;15.53;63.78;97850.84;5023477;28;20136;-75
2023/07/08 04:11:54;;;;;;;0.10;0.10;;;;;;;15.65;63.57;97845.59;5026933;28;20144;-75
2023/07/08 04:14:23;;;;;;;0.10;0.10;;;;;;;15.70;63.16;97845.75;5027421;28;20543;-74
2023/07/08 04:16:53;;;;;;;0.00;0.00;;;;;;;15.77;62.86;97841.97;5022381;28;20034;-76
2023/07/08 04:19:22;;;;;;;0.10;0.10;;;;;;;15.71;63.26;97844.69;5022319;28;20049;-77
2023/07/08 04:21:50;;;;;;;0.10;0.10;;;;;;;15.56;63.27;97850.44;5021257;28;20054;-74
2023/07/08 04:24:18;;;;;;;0.10;0.10;;;;;;;15.67;63.16;97849.72;5027457;28;20530;-75
2023/07/08 04:26:47;;;;;;;0.10;0.10;;;;;;;15.70;62.96;97851.94;5024950;28;20072;-74
2023/07/08 04:29:16;;;;;;;0.10;0.10;;;;;;;15.80;62.52;97851.44;5027567;28;20045;-75
2023/07/08 04:31:45;;;;;;;0.10;0.10;;;;;;;15.96;61.06;97855.44;5010972;28;20037;-75
2023/07/08 04:34:14;;;;;;;0.00;0.00;;;;;;;16.10;59.86;97849.69;5031460;28;20050;-76
2023/07/08 04:36:42;;;;;;;0.10;0.10;;;;;;;16.24;59.64;97852.25;5019655;28;20046;-76
2023/07/08 04:39:10;;;;;;;0.00;0.00;;;;;;;16.48;59.19;97846.78;5025472;28;20046;-75
2023/07/08 04:41:40;;;;;;;0.10;0.10;;;;;;;16.80;58.52;97846.63;5024774;28;20045;-75
2023/07/08 04:44:08;;;;;;;0.10;0.10;;;;;;;16.78;58.29;97854.09;5023127;28;20045;-75
2023/07/08 04:46:38;;;;;;;0.43;0.10;;;;;;;16.87;58.51;97850.88;5023797;28;20046;-76
2023/07/08 04:49:09;;;;;;;0.10;0.10;;;;;;;16.89;58.64;97856.03;5023903;28;20046;-75
2023/07/08 04:51:37;;;;;;;0.10;0.10;;;;;;;16.91;58.56;97859.34;5020565;28;20509;-74
2023/07/08 04:54:05;;;;;;;0.10;0.10;;;;;;;16.99;58.24;97866.28;5025372;28;20049;-76
2023/07/08 04:56:38;;;;;;;0.10;0.10;;;;;;;17.05;57.75;97865.34;5024232;28;20045;-75
2023/07/08 04:59:06;;;;;;;0.08;0.08;;;;;;;17.13;56.72;97865.03;5024915;28;20037;-76
2023/07/08 05:01:34;;;;;;;0.08;0.08;;;;;;;17.24;56.03;97862.34;5021739;28;20125;-76
2023/07/08 05:04:04;;;;;;;0.10;0.10;;;;;;;17.31;55.77;97862.28;5027267;28;20041;-75
2023/07/08 05:06:34;;;;;;;0.20;0.20;;;;;;;17.32;56.15;97863.09;5024007;28;20136;-75
2023/07/08 05:09:03;;;;;;;0.03;0.03;;;;;;;17.39;56.40;97866.50;5024594;28;20038;-75
2023/07/08 05:11:30;;;;;;;0.05;0.05;;;;;;;17.47;56.04;97864.28;5024123;28;20045;-76
2023/07/08 05:13:58;;;;;;;0.00;0.00;;;;;;;17.59;55.45;97867.03;5028229;28;20048;-75
2023/07/08 05:16:26;;;;;;;0.10;0.10;;;;;;;17.65;54.81;97868.81;5026412;28;20045;-75
2023/07/08 05:18:54;;;;;;;0.10;0.10;;;;;;;17.75;54.77;97873.66;5021024;28;20048;-75
2023/07/08 05:21:22;;;;;;;0.10;0.10;;;;;;;17.91;54.91;97867.56;5027961;28;20046;-76
2023/07/08 05:23:51;;;;;;;0.10;0.10;;;;;;;17.92;54.49;97861.91;5022509;28;20513;-75
2023/07/08 05:26:18;;;;;;;0.10;0.10;;;;;;;17.99;54.04;97867.19;5024806;28;20703;-75
2023/07/08 05:28:46;;;;;;;0.20;0.20;;;;;;;18.09;53.71;97853.91;5026013;28;20052;-76
2023/07/08 05:31:14;;;;;;;0.10;0.10;;;;;;;18.27;53.34;97861.88;5027545;28;20049;-77
2023/07/08 05:33:41;;;;;;;0.10;0.10;;;;;;;18.41;52.69;97858.94;5013834;28;20050;-76
2023/07/08 05:36:09;;;;;;;0.10;0.10;;;;;;;18.55;51.63;97861.13;5020468;28;20041;-75
2023/07/08 05:38:36;;;;;;;0.10;0.10;;;;;;;18.71;51.98;97859.59;5023168;28;20394;-75
2023/07/08 05:41:06;;;;;;;0.10;0.10;;;;;;;18.87;50.98;97858.03;5024005;28;20520;-75
2023/07/08 05:43:33;;;;;;;0.00;0.00;;;;;;;18.99;50.29;97859.63;5016439;28;20509;-75
2023/07/08 05:46:02;;;;;;;0.03;0.03;;;;;;;19.14;50.03;97856.38;5024048;28;20053;-75
2023/07/08 05:48:38;;;;;;;0.10;0.10;;;;;;;19.29;49.67;97867.47;5020289;28;20061;-75
2023/07/08 05:51:06;;;;;;;0.10;0.10;;;;;;;19.40;49.35;97853.06;5020579;28;20129;-75
2023/07/08 05:53:34;;;;;;;0.00;0.00;;;;;;;19.50;49.21;97852.44;5022688;28;20050;-75
2023/07/08 05:56:03;;;;;;;0.00;0.00;;;;;;;19.61;48.78;97853.44;5025026;28;20038;-76
2023/07/08 05:58:32;;;;;;;0.15;0.15;;;;;;;19.72;48.91;97856.06;5020805;28;20045;-73
2023/07/08 06:00:59;;;;;;;0.00;0.00;;;;;;;19.84;48.64;97858.66;5029853;28;20053;-74
2023/07/08 06:03:27;;;;;;;0.08;0.08;;;;;;;19.95;48.38;97852.31;5019296;28;20136;-73
2023/07/08 06:05:55;;;;;;;0.10;0.10;;;;;;;20.06;48.04;97851.41;5023908;28;20489;-74
2023/07/08 06:08:23;;;;;;;0.03;0.03;;;;;;;20.16;48.02;97859.69;5021122;28;20092;-74
2023/07/08 06:10:51;;;;;;;0.00;0.00;;;;;;;20.25;47.38;97849.22;5018744;28;20045;-74
2023/07/08 06:13:18;;;;;;;0.03;0.03;;;;;;;20.36;47.50;97855.66;5022681;28;20046;-74
2023/07/08 06:15:47;;;;;;;0.00;0.00;;;;;;;20.46;47.29;97855.78;5028893;28;20502;-74
2023/07/08 06:18:15;;;;;;;0.00;0.00;;;;;;;20.57;47.18;97856.72;5021948;28;20107;-77
2023/07/08 06:20:43;;;;;;;0.00;0.00;;;;;;;20.66;47.03;97858.75;5015655;28;20052;-74
2023/07/08 06:23:10;;;;;;;0.10;0.10;;;;;;;20.78;47.10;97864.06;5028500;28;20053;-73
2023/07/08 06:25:38;;;;;;;0.15;0.13;;;;;;;20.93;46.61;97871.56;5030363;28;20042;-74
2023/07/08 06:28:05;;;;;;;0.00;0.00;;;;;;;21.00;46.40;97870.28;5030788;28;20046;-74
2023/07/08 06:30:33;;;;;;;0.00;0.00;;;;;;;21.12;46.06;97870.16;5025230;28;20080;-74
2023/07/08 06:33:02;;;;;;;0.00;0.00;;;;;;;21.27;45.29;97859.50;5034382;28;20120;-74
2023/07/08 06:35:29;;;;;;;0.00;0.00;;;;;;;21.42;44.85;97870.47;5024985;28;20084;-74
2023/07/08 06:37:57;;;;;;;0.00;0.00;;;;;;;21.53;44.57;97865.97;5023354;28;20051;-76
2023/07/08 06:40:24;;;;;;;0.00;0.00;;;;;;;21.68;44.30;97868.00;5025326;28;20049;-73
2023/07/08 06:42:52;;;;;;;0.10;0.10;;;;;;;21.81;43.76;97862.94;5029105;28;20046;-74
2023/07/08 06:45:40;;;;;;;0.10;0.10;;;;;;;22.00;43.42;97865.28;5016581;28;20046;-74
2023/07/08 06:48:09;;;;;;;0.00;0.00;;;;;;;22.12;43.29;97865.91;5029050;28;20130;-73
2023/07/08 06:50:38;;;;;;;0.00;0.00;;;;;;;22.26;42.40;97865.19;5031843;28;20034;-76
2023/07/08 06:53:07;;;;;;;0.10;0.10;;;;;;;22.42;42.15;97862.56;5023228;28;20045;-74
2023/07/08 06:55:35;;;;;;;0.10;0.00;;;;;;;22.59;41.67;97853.13;5029619;28;20660;-74
2023/07/08 06:58:02;;;;;;;0.10;0.10;;;;;;;22.75;41.08;97854.03;5022693;28;20038;-74
2023/07/08 07:00:30;;;;;;;0.00;0.00;;;;;;;22.92;40.62;97859.28;5026773;28;20518;-74
2023/07/08 07:02:59;;;;;;;0.00;0.00;;;;;;;23.03;40.19;97855.50;5027876;28;20061;-73
2023/07/08 07:05:28;;;;;;;0.00;0.00;;;;;;;23.27;40.20;97855.81;5031148;28;20045;-74
2023/07/08 07:07:56;;;;;;;0.10;0.10;;;;;;;23.56;39.01;97859.72;5028346;28;20076;-74
2023/07/08 07:10:24;;;;;;;0.10;0.10;;;;;;;23.73;38.78;97862.16;5023939;28;20046;-74
2023/07/08 07:12:52;;;;;;;0.00;0.00;;;;;;;23.92;38.20;97860.53;5030280;28;20042;-75
2023/07/08 07:15:19;;;;;;;0.13;0.13;;;;;;;24.13;38.03;97859.41;5023551;28;20046;-73
2023/07/08 07:17:47;;;;;;;0.00;0.00;;;;;;;24.24;37.12;97864.88;5026303;28;20053;-74
2023/07/08 07:20:15;;;;;;;0.10;0.10;;;;;;;24.48;36.93;97857.72;5026219;28;20081;-74
2023/07/08 07:22:44;;;;;;;0.00;0.00;;;;;;;24.71;36.15;97862.53;5015699;28;20046;-73
2023/07/08 07:25:11;;;;;;;0.08;0.05;;;;;;;24.80;36.20;97857.34;5026942;28;20052;-74
2023/07/08 07:27:39;;;;;;;0.00;0.00;;;;;;;24.99;35.27;97857.56;5026045;28;20034;-74
2023/07/08 07:30:09;;;;;;;0.13;0.13;;;;;;;25.08;35.11;97851.22;5025424;28;20412;-74
2023/07/08 07:32:37;;;;;;;0.00;0.00;;;;;;;25.22;35.39;97857.69;5017998;28;20049;-74
2023/07/08 07:35:06;;;;;;;0.10;0.10;;;;;;;25.30;35.28;97855.47;5026361;28;20397;-74
2023/07/08 07:37:34;;;;;;;0.00;0.00;;;;;;;25.50;35.24;97858.88;5025504;28;20060;-73
2023/07/08 07:40:03;;;;;;;0.00;0.00;;;;;;;25.63;34.84;97859.38;5028992;28;20101;-73
2023/07/08 07:42:30;;;;;;;0.03;0.03;;;;;;;25.80;34.15;97852.38;5024272;28;20059;-74
2023/07/08 07:44:58;;;;;;;0.00;0.00;;;;;;;25.91;34.39;97853.09;5027954;28;20038;-73
2023/07/08 07:47:25;;;;;;;0.10;0.10;;;;;;;26.02;34.79;97840.97;5027091;28;20045;-77
2023/07/08 07:49:56;;;;;;;0.10;0.10;;;;;;;26.15;34.52;97843.03;5028213;28;20041;-74
2023/07/08 07:52:25;;;;;;;0.08;0.00;;;;;;;26.35;34.35;97839.31;5025300;28;20053;-75
2023/07/08 07:54:53;;;;;;;0.00;0.00;;;;;;;26.57;33.61;97842.34;5027853;28;20041;-74
2023/07/08 07:57:22;;;;;;;0.00;0.00;;;;;;;26.75;33.42;97840.75;5026943;28;20397;-75
2023/07/08 07:59:50;;;;;;;0.00;0.00;;;;;;;26.86;33.09;97845.00;5024551;28;20057;-73
2023/07/08 08:02:18;;;;;;;0.00;0.00;;;;;;;26.97;32.91;97842.97;5063678;22;20499;-74
2023/07/08 08:04:46;;;;;;;0.00;0.00;;;;;;;27.10;32.40;97842.22;5034926;28;20076;-73
2023/07/08 08:07:13;;;;;;;0.10;0.10;;;;;;;27.19;32.62;97845.13;5048983;28;20045;-74
2023/07/08 08:09:41;;;;;;;0.00;0.00;;;;;;;27.38;32.67;97846.75;5033427;28;20049;-74
2023/07/08 08:12:10;;;;;;;0.00;0.00;;;;;;;27.66;32.02;97849.66;5052225;28;20127;-73
2023/07/08 08:14:40;;;;;;;0.00;0.00;;;;;;;27.72;31.41;97851.22;5047251;28;20061;-74
2023/07/08 08:17:07;;;;;;;0.00;0.00;;;;;;;27.75;30.36;97842.38;5043620;28;20053;-74
2023/07/08 08:19:35;;;;;;;0.00;0.00;;;;;;;27.90;30.42;97853.09;5043778;28;20501;-74
2023/07/08 08:22:03;;;;;;;0.00;0.00;;;;;;;28.18;29.62;97842.22;5047384;28;20051;-73
2023/07/08 08:24:31;;;;;;;0.00;0.00;;;;;;;28.24;29.10;97841.81;5049876;28;20053;-74
2023/07/08 08:26:58;;;;;;;0.10;0.00;;;;;;;28.35;28.94;97851.47;5044676;28;20499;-73
2023/07/08 08:29:26;;;;;;;0.03;0.03;;;;;;;28.43;28.76;97849.97;5046690;28;20056;-72
2023/07/08 08:31:55;;;;;;;0.00;0.00;;;;;;;28.46;28.86;97852.09;5051607;28;20041;-74
2023/07/08 08:34:22;;;;;;;0.00;0.00;;;;;;;28.55;29.01;97846.75;5048155;28;20135;-73
2023/07/08 08:36:50;;;;;;;0.00;0.00;;;;;;;28.63;28.76;97849.59;5050778;28;20519;-74
2023/07/08 08:39:17;;;;;;;0.00;0.00;;;;;;;28.66;29.02;97859.13;5043944;28;20037;-74
2023/07/08 08:41:45;;;;;;;0.03;0.03;;;;;;;28.72;28.90;97861.50;5049532;28;20045;-74
2023/07/08 08:44:15;;;;;;;0.00;0.00;;;;;;;29.00;28.66;97858.75;5051093;28;20041;-74
2023/07/08 08:46:49;;;;;;;0.10;0.10;;;;;;;29.10;27.65;97858.53;5032773;28;20033;-74
2023/07/08 08:49:25;;;;;;;0.00;0.00;;;;;;;29.19;27.81;97856.66;5042847;28;20500;-74
2023/07/08 08:51:53;;;;;;;0.00;0.00;;;;;;;29.32;27.16;97855.84;5048024;28;20044;-73
2023/07/08 08:54:21;;;;;;;0.00;0.00;;;;;;;29.52;27.19;97847.13;5043821;28;20072;-73
2023/07/08 08:56:55;;;;;;;0.00;0.00;;;;;;;29.52;26.74;97854.56;5043937;28;20045;-74
2023/07/08 08:59:28;;;;;;;0.00;0.00;;;;;;;29.75;25.74;97852.66;5047871;28;20041;-75
2023/07/08 09:01:56;;;;;;;0.10;0.10;;;;;;;29.81;25.87;97851.41;5045549;28;20488;-74
2023/07/08 09:04:30;;;;;;;0.05;0.03;;;;;;;29.92;25.24;97845.31;5041937;28;20049;-74
2023/07/08 09:07:01;;;;;;;0.00;0.00;;;;;;;29.80;25.01;97847.00;5039583;28;20041;-74
2023/07/08 09:09:34;;;;;;;0.00;0.00;;;;;;;29.60;25.33;97851.06;5041076;28;20060;-74
2023/07/08 09:12:04;;;;;;;0.03;0.03;;;;;;;29.73;25.76;97865.91;5040406;28;20041;-73
2023/07/08 09:14:35;;;;;;;0.00;0.00;;;;;;;29.73;25.48;97857.66;5041084;28;20037;-74
2023/07/08 09:17:15;;;;;;;0.00;0.00;;;;;;;29.85;25.56;97853.22;5045801;28;20045;-74
2023/07/08 09:19:46;;;;;;;0.00;0.00;;;;;;;30.10;23.77;97860.06;5042896;28;20100;-75
2023/07/08 09:22:17;;;;;;;0.10;0.00;;;;;;;30.27;24.03;97856.59;5042999;28;20347;-74
2023/07/08 09:24:46;;;;;;;0.03;0.03;;;;;;;30.45;24.17;97850.03;5035787;28;20503;-74
2023/07/08 09:27:14;;;;;;;0.10;0.10;;;;;;;30.51;24.30;97857.03;5050766;28;20036;-74
2023/07/08 09:29:41;;;;;;;0.00;0.00;;;;;;;30.57;22.93;97839.25;5030265;28;20447;-74
2023/07/08 09:32:17;;;;;;;0.00;0.00;;;;;;;30.78;22.59;97842.25;5042415;28;20049;-75
2023/07/08 09:34:47;;;;;;;0.00;0.00;;;;;;;30.88;22.09;97857.69;5035522;28;20059;-74
2023/07/08 09:37:22;;;;;;;0.00;0.00;;;;;;;30.91;22.20;97841.31;5049119;28;20057;-74
2023/07/08 09:39:50;;;;;;;0.00;0.00;;;;;;;30.79;22.13;97845.81;5036732;28;20033;-74
2023/07/08 09:42:17;;;;;;;0.00;0.00;;;;;;;30.10;22.79;97840.78;5047483;28;20407;-75
2023/07/08 09:44:46;;;;;;;0.00;0.00;;;;;;;30.29;23.08;97838.63;5035908;28;20408;-74
2023/07/08 09:47:23;;;;;;;0.08;0.00;;;;;;;30.54;22.77;97837.13;5046991;28;20037;-74
2023/07/08 09:49:54;;;;;;;0.00;0.00;;;;;;;30.83;22.81;97839.34;5036118;28;20444;-75
2023/07/08 09:52:22;;;;;;;0.00;0.00;;;;;;;30.73;22.41;97849.84;5045013;28;20049;-74
2023/07/08 09:54:50;;;;;;;0.00;0.00;;;;;;;30.49;22.77;97834.50;5043055;28;20036;-75
2023/07/08 09:57:26;;;;;;;0.00;0.00;;;;;;;30.41;23.08;97839.97;5042101;28;20120;-74
2023/07/08 09:59:58;;;;;;;0.00;0.00;;;;;;;30.74;22.74;97830.22;5045164;28;20511;-75
2023/07/08 10:02:27;;;;;;;;;;;;;;;31.04;22.69;97842.31;5045881;28;20131;-74
2023/07/08 10:04:57;;;;;;;0.00;0.00;;;;;;;31.12;22.50;97837.97;5043334;28;19928;-74
2023/07/08 10:07:28;;;;;;;0.00;0.00;;;;;;;31.39;22.41;97837.66;5049877;28;20041;-74
2023/07/08 10:09:58;;;;;;;0.05;0.05;;;;;;;31.52;22.47;97842.22;5045777;28;20496;-74
2023/07/08 10:12:26;;;;;;;0.00;0.00;;;;;;;31.59;22.49;97845.28;5049048;28;20041;-75
2023/07/08 10:14:58;;;;;;;0.00;0.00;;;;;;;31.71;21.97;97839.97;5043604;28;20042;-74
2023/07/08 10:17:26;;;;;;;0.00;0.00;;;;;;;31.79;22.27;97843.03;5050343;28;20098;-74
2023/07/08 10:19:55;;;;;;;0.00;0.00;;;;;;;31.84;21.65;97838.16;5042515;28;20033;-74
2023/07/08 10:22:36;;;;;;;0.00;0.00;;;;;;;31.64;22.09;97839.66;5042288;28;20045;-74
2023/07/08 10:25:14;;;;;;;0.00;0.00;;;;;;;31.86;22.02;97835.91;5042519;28;20534;-75
2023/07/08 10:27:48;;;;;;;0.00;0.00;;;;;;;32.19;21.40;97844.44;5039919;28;20045;-74
2023/07/08 10:30:21;;;;;;;0.00;0.00;;;;;;;32.36;21.19;97838.88;5042216;28;20045;-72
2023/07/08 10:33:19;;;;;;;0.00;0.00;;;;;;;32.12;21.05;97848.84;5043322;28;20029;-73
2023/07/08 10:35:54;;;;;;;0.00;0.00;;;;;;;32.27;20.72;97840.06;5035741;28;20068;-74
2023/07/08 10:38:35;;;;;;;0.10;0.00;;;;;;;32.38;20.85;97839.38;5046833;28;20194;-73
2023/07/08 10:41:09;;;;;;;0.00;0.00;;;;;;;32.41;20.75;97841.47;5038924;28;20046;-73
2023/07/08 10:43:45;;;;;;;0.00;0.00;;;;;;;32.48;20.38;97837.38;5049609;28;20400;-73
2023/07/08 10:46:34;;;;;;;0.00;0.00;;;;;;;32.71;19.61;97836.00;5043037;28;20068;-74
2023/07/08 10:49:21;;;;;;;0.00;0.00;;;;;;;32.23;20.57;97839.91;5039315;28;20142;-74
2023/07/08 10:51:59;;;;;;;0.00;0.00;;;;;;;32.13;20.60;97842.16;5036520;28;20045;-74
2023/07/08 10:54:41;;;;;;;0.00;0.00;;;;;;;32.21;20.72;97838.59;5042170;28;20496;-72
2023/07/08 10:57:20;;;;;;;0.08;0.00;;;;;;;32.35;20.45;97833.69;5042174;28;20049;-73
2023/07/08 10:59:57;;;;;;;0.00;0.00;;;;;;;32.54;20.27;97825.00;5041540;28;20056;-74
2023/07/08 11:02:39;;;;;;;0.00;0.00;;;;;;;32.45;20.47;97830.56;5044872;28;20049;-72
2023/07/08 11:05:19;;;;;;;0.00;0.00;;;;;;;32.26;20.49;97830.16;5043483;28;20119;-73
2023/07/08 11:07:52;;;;;;;0.00;0.00;;;;;;;32.05;21.15;97830.81;5034230;28;20041;-72
2023/07/08 11:10:24;;;;;;;0.00;0.00;;;;;;;32.20;21.11;97828.69;5039407;28;20045;-73
2023/07/08 11:12:56;;;;;;;0.00;0.00;;;;;;;32.11;20.83;97828.69;5050421;28;20057;-73
2023/07/08 11:15:25;;;;;;;;;;;;;;;31.90;21.15;97830.50;5046424;28;20124;-74
2023/07/08 11:17:58;;;;;;;0.00;0.00;;;;;;;32.17;20.88;97827.41;5046600;28;20047;-73
2023/07/08 11:20:32;;;;;;;0.00;0.00;;;;;;;32.02;20.76;97817.66;5044976;28;20045;-74
2023/07/08 11:23:04;;;;;;;0.00;0.00;;;;;;;32.14;20.72;97832.75;5045318;28;20049;-73
2023/07/08 11:25:32;;;;;;;0.00;0.00;;;;;;;32.36;20.46;97827.84;5044644;28;20045;-73
2023/07/08 11:28:03;;;;;;;0.00;0.00;;;;;;;32.44;20.54;97831.69;5053856;28;20123;-73
2023/07/08 11:30:34;;;;;;;0.10;0.00;;;;;;;32.26;20.86;97814.38;5043501;28;20049;-73
2023/07/08 11:33:04;;;;;;;0.00;0.00;;;;;;;32.63;20.66;97809.97;5052825;28;20076;-73
2023/07/08 11:35:39;;;;;;;0.22;0.00;;;;;;;32.76;19.78;97813.69;5042865;28;20060;-73
2023/07/08 11:38:12;;;;;;;0.00;0.00;;;;;;;32.65;20.75;97804.13;5048473;28;20500;-73
2023/07/08 11:40:51;;;;;;;0.00;0.00;;;;;;;32.50;20.28;97799.16;5044790;28;20042;-73
2023/07/08 11:43:20;;;;;;;0.10;0.03;;;;;;;32.06;20.17;97812.28;5045568;28;20073;-74
2023/07/08 11:45:49;;;;;;;0.00;0.00;;;;;;;32.54;20.32;97802.88;5047584;28;20052;-74